Allentown, Illinois
Current Conditions -  °F | °C
As of 3:54 AM on Friday 28 Nov 2014 (Local Time) from KPIA Reporting Station
Overcast Overcast  
Wind Chill: -13°   Ceiling: 12000
Heat Index: -7°   Visibility: 10mi
Dew Point: -12°   Wind: 9mph
Humidity: 68%   Direction: 160°SSE
Pressure: 30.34"   Gusts: NA
Location:  40.4817°N, 89.4923°W
Report Text: KPIA 280954Z 16008KT 10SM OVC120 M07/M12 A3034 RMK AO2 SLP285 T10721122
Loading
Personal Weather Stations






























Interactive Weather Map New forecast layout! Learn more

10-Day Weather Forecast

Advertisements
Track Severe Weather on mobile